Time;durP1;ratioP1;P1;durP2;ratioP2;P2;SDS_P1;SDS_P2;PMS_P1;PMS_P2;Temp;Humidity;BMP_temperature;BMP_pressure;BME280_temperature;BME280_humidity;BME280_pressure;Samples;Min_cycle;Max_cycle;Signal;HPM_P1;HPM_P2
2021/11/01 00:00:40;;;;;;;3.23;2.20;;;;;;;;;;5040726;28;20442;-95
2021/11/01 00:03:12;;;;;;;2.73;1.67;;;;;;;;;;5039500;28;20543;-95
2021/11/01 00:05:41;;;;;;;2.50;1.93;;;;;;;;;;5038004;28;20499;-95
2021/11/01 00:08:15;;;;;;;3.70;2.43;;;;;;;;;;5040605;28;20472;-95
2021/11/01 00:10:52;;;;;;;3.50;2.63;;;;;;;;;;5006141;28;20452;-94
2021/11/01 00:13:21;;;;;;;3.00;2.20;;;;;;;;;;5038179;28;20459;-94
2021/11/01 00:19:04;;;;;;;2.37;2.13;;;;;;;;;;5041947;28;20459;-94
2021/11/01 00:21:43;;;;;;;1.83;1.67;;;;;;;;;;5044309;28;20459;-93
2021/11/01 00:24:13;;;;;;;3.27;1.70;;;;;;;;;;5043303;28;20510;-94
2021/11/01 00:26:50;;;;;;;2.30;1.50;;;;;;;;;;5042658;28;20535;-95
2021/11/01 00:29:27;;;;;;;2.90;1.43;;;;;;;;;;5040477;28;20452;-95
2021/11/01 00:31:58;;;;;;;1.30;1.00;;;;;;;;;;5041867;28;20455;-95
2021/11/01 00:34:37;;;;;;;1.63;0.80;;;;;;;;;;5045056;28;20471;-92
2021/11/01 00:37:08;;;;;;;1.10;1.00;;;;;;;;;;5040236;28;20559;-91
2021/11/01 00:39:41;;;;;;;0.90;0.80;;;;;;;;;;5045026;28;20452;-96
2021/11/01 00:42:26;;;;;;;1.70;0.80;;;;;;;;;;5041254;28;20509;-93
2021/11/01 00:45:02;;;;;;;0.80;0.70;;;;;;;;;;5046048;28;20966;-95
2021/11/01 00:47:32;;;;;;;0.50;0.50;;;;;;;;;;5052621;28;20431;-91
2021/11/01 00:50:03;;;;;;;0.70;0.50;;;;;;;;;;5052190;28;21018;-94
2021/11/01 00:52:34;;;;;;;1.73;1.30;;;;;;;;;;5042641;28;20471;-95
2021/11/01 00:55:10;;;;;;;2.57;1.27;;;15.20;99.90;;;;;;5041071;28;20471;-90
2021/11/01 00:57:39;;;;;;;1.47;0.63;;;;;;;;;;5040876;28;20491;-93
2021/11/01 01:00:19;;;;;;;1.03;0.80;;;15.20;99.90;;;;;;5045480;28;20456;-92
2021/11/01 01:02:54;;;;;;;1.77;1.40;;;;;;;;;;5037952;28;20455;-94
2021/11/01 01:05:25;;;;;;;6.60;3.93;;;15.30;99.90;;;;;;5044620;28;20451;-91
2021/11/01 01:07:57;;;;;;;1.57;1.27;;;;;;;;;;5041662;28;20457;-94
2021/11/01 01:10:34;;;;;;;2.10;1.90;;;;;;;;;;5042929;28;20459;-92
2021/11/01 01:13:05;;;;;;;1.20;1.00;;;;;;;;;;5046359;28;20482;-93
2021/11/01 01:15:54;;;;;;;1.43;1.33;;;;;;;;;;4981803;28;20946;-95
2021/11/01 01:18:28;;;;;;;1.00;0.90;;;;;;;;;;4991332;28;20586;-94
2021/11/01 01:21:00;;;;;;;1.60;1.33;;;;;;;;;;4983781;28;20450;-93
2021/11/01 01:23:27;;;;;;;1.57;1.00;;;;;;;;;;4981039;28;20496;-95
2021/11/01 01:25:56;;;;;;;1.17;0.60;;;;;;;;;;4984031;28;20521;-95
2021/11/01 01:31:09;;;;;;;1.20;0.90;;;;;;;;;;4984359;28;20474;-95
2021/11/01 01:33:42;;;;;;;1.87;0.70;;;;;;;;;;4983303;28;20485;-94
2021/11/01 01:36:13;;;;;;;1.20;0.93;;;;;;;;;;4982172;28;20448;-95
2021/11/01 01:38:41;;;;;;;1.10;1.00;;;14.70;99.90;;;;;;4983811;28;20518;-95
2021/11/01 01:41:13;;;;;;;3.63;1.10;;;14.70;99.90;;;;;;5030492;28;20586;-94
2021/11/01 01:43:41;;;;;;;1.43;0.70;;;;;;;;;;5037307;28;20459;-93
2021/11/01 01:46:11;;;;;;;2.30;0.90;;;;;;;;;;5038711;28;20446;-93
2021/11/01 01:48:38;;;;;;;0.60;0.60;;;;;;;;;;5043746;28;20531;-91
2021/11/01 01:51:13;;;;;;;0.90;0.80;;;;;;;;;;5043285;28;20554;-94
2021/11/01 01:54:01;;;;;;;1.20;0.90;;;14.60;99.90;;;;;;5041967;28;20467;-95
2021/11/01 01:56:32;;;;;;;1.10;1.00;;;14.50;99.90;;;;;;5039548;28;20436;-95
2021/11/01 02:01:48;;;;;;;0.80;0.73;;;14.40;99.90;;;;;;5039166;28;20887;-93
2021/11/01 02:04:16;;;;;;;1.43;1.30;;;;;;;;;;5037575;28;20460;-95
2021/11/01 02:07:09;;;;;;;1.23;1.13;;;14.30;99.90;;;;;;5043585;28;20439;-92
2021/11/01 02:09:53;;;;;;;3.60;0.50;;;13.70;99.90;;;;;;5047165;28;20550;-93
2021/11/01 02:12:27;;;;;;;2.00;0.70;;;13.40;99.90;;;;;;5046142;28;20440;-93
2021/11/01 02:15:03;;;;;;;2.03;0.57;;;12.90;99.90;;;;;;5046334;28;20463;-94
2021/11/01 02:17:32;;;;;;;0.87;0.50;;;12.60;99.90;;;;;;5048938;28;20478;-94
2021/11/01 02:20:04;;;;;;;3.63;0.60;;;12.40;99.90;;;;;;5052717;28;20423;-93
2021/11/01 02:22:41;;;;;;;2.60;1.13;;;12.20;99.90;;;;;;5047719;28;20458;-93
2021/11/01 02:25:11;;;;;;;3.10;0.70;;;12.00;99.90;;;;;;5039966;28;20461;-92
2021/11/01 02:27:45;;;;;;;2.00;0.50;;;11.90;99.90;;;;;;5042952;28;20462;-93
2021/11/01 02:30:15;;;;;;;0.70;0.50;;;;;;;;;;5044899;28;20474;-92
2021/11/01 02:32:45;;;;;;;4.67;0.80;;;11.60;99.90;;;;;;5049051;28;20458;-94
2021/11/01 02:35:13;;;;;;;4.33;0.80;;;;;;;;;;5042713;28;20443;-93
2021/11/01 02:37:44;;;;;;;1.83;0.70;;;;;;;;;;5048559;28;20527;-93
2021/11/01 02:40:13;;;;;;;1.07;0.60;;;;;;;;;;5054582;28;20466;-93
2021/11/01 02:42:47;;;;;;;0.83;0.47;;;;;;;;;;5064626;28;20443;-91
2021/11/01 02:45:15;;;;;;;3.53;0.97;;;;;;;;;;5064086;28;20500;-92
2021/11/01 02:47:43;;;;;;;0.50;0.40;;;;;;;;;;5068622;28;20442;-91
2021/11/01 02:50:12;;;;;;;1.40;0.50;;;11.20;99.90;;;;;;5069917;28;20514;-94
2021/11/01 02:52:40;;;;;;;1.33;0.70;;;;;;;;;;5063223;28;20520;-93
2021/11/01 02:55:10;;;;;;;1.63;0.70;;;;;;;;;;5063907;28;20810;-93
2021/11/01 02:57:48;;;;;;;1.30;0.50;;;;;;;;;;5061702;28;20482;-93
2021/11/01 03:00:20;;;;;;;1.53;0.97;;;11.10;99.90;;;;;;5077242;28;21136;-94
2021/11/01 03:02:51;;;;;;;0.60;0.40;;;;;;;;;;5083288;28;20545;-95
2021/11/01 03:05:21;;;;;;;0.77;0.40;;;11.20;99.90;;;;;;5091814;28;20441;-94
2021/11/01 03:07:49;;;;;;;2.77;0.70;;;;;;;;;;5097902;28;20456;-94
2021/11/01 03:10:21;;;;;;;1.97;0.47;;;;;;;;;;5083326;28;20833;-94
2021/11/01 03:12:51;;;;;;;2.53;0.63;;;11.00;99.90;;;;;;5082594;28;20573;-95
2021/11/01 03:15:23;;;;;;;2.30;0.60;;;11.00;99.90;;;;;;5080333;28;20536;-94
2021/11/01 03:17:54;;;;;;;5.20;0.90;;;;;;;;;;5083210;28;20469;-94
2021/11/01 03:20:28;;;;;;;1.37;0.40;;;;;;;;;;5085098;28;20831;-95
2021/11/01 03:22:59;;;;;;;6.87;1.00;;;11.00;99.90;;;;;;5049121;28;20464;-93
2021/11/01 03:25:39;;;;;;;3.23;0.47;;;;;;;;;;5080164;28;20453;-93
2021/11/01 03:28:08;;;;;;;1.43;0.70;;;10.80;99.90;;;;;;5081028;28;20452;-94
2021/11/01 03:30:37;;;;;;;0.90;0.50;;;;;;;;;;5081944;28;20454;-94
2021/11/01 03:33:05;;;;;;;1.93;0.50;;;10.80;99.90;;;;;;5077093;28;20516;-94
2021/11/01 03:35:33;;;;;;;1.90;0.43;;;;;;;;;;5073235;28;20927;-91
2021/11/01 03:38:02;;;;;;;1.70;0.60;;;;;;;;;;5074712;28;20535;-93
2021/11/01 03:40:32;;;;;;;3.33;0.90;;;;;;;;;;5076528;28;20885;-93
2021/11/01 03:43:02;;;;;;;3.13;0.70;;;;;;;;;;5075623;28;20438;-94
2021/11/01 03:45:30;;;;;;;3.60;1.00;;;;;;;;;;5074208;28;20827;-92
2021/11/01 03:48:04;;;;;;;2.60;0.63;;;;;;;;;;5076333;28;20453;-91
2021/11/01 03:50:36;;;;;;;2.30;0.50;;;;;;;;;;5074729;28;20476;-93
2021/11/01 03:53:04;;;;;;;1.43;0.70;;;;;;;;;;5075027;28;20458;-91
2021/11/01 03:55:31;;;;;;;1.10;0.40;;;;;;;;;;5075896;28;20450;-92
2021/11/01 03:57:58;;;;;;;1.60;0.43;;;;;;;;;;5075338;28;20481;-94
2021/11/01 04:00:27;;;;;;;2.70;0.93;;;;;;;;;;5075592;28;20480;-92
2021/11/01 04:02:54;;;;;;;2.10;0.40;;;10.40;99.90;;;;;;5071234;28;20450;-92
2021/11/01 04:05:23;;;;;;;3.97;0.90;;;;;;;;;;5075448;28;20457;-93
2021/11/01 04:07:50;;;;;;;5.00;0.60;;;;;;;;;;5070795;28;20558;-92
2021/11/01 04:10:18;;;;;;;1.40;1.03;;;;;;;;;;5074435;28;20452;-93
2021/11/01 04:12:45;;;;;;;2.83;0.60;;;;;;;;;;5074059;28;20491;-92
2021/11/01 04:15:15;;;;;;;4.37;0.87;;;10.30;99.90;;;;;;5075813;28;20941;-93
2021/11/01 04:17:45;;;;;;;2.63;0.87;;;;;;;;;;5076489;28;20485;-91
2021/11/01 04:20:28;;;;;;;2.77;0.90;;;10.20;99.90;;;;;;5063694;28;20453;-94
2021/11/01 04:23:01;;;;;;;1.50;0.47;;;;;;;;;;5054400;28;20446;-94
2021/11/01 04:25:29;;;;;;;4.90;0.70;;;;;;;;;;5053565;28;20866;-94
2021/11/01 04:27:57;;;;;;;3.27;0.87;;;;;;;;;;5052341;28;20563;-94
2021/11/01 04:30:26;;;;;;;3.53;0.90;;;;;;;;;;5053602;28;20423;-91
2021/11/01 04:32:56;;;;;;;1.40;0.60;;;;;;;;;;5053643;28;20450;-93
2021/11/01 04:35:25;;;;;;;2.90;0.67;;;;;;;;;;5052150;28;20459;-93
2021/11/01 04:37:58;;;;;;;2.97;0.67;;;;;;;;;;5057531;28;20469;-91
2021/11/01 04:40:35;;;;;;;2.63;0.63;;;;;;;;;;5074985;28;21041;-93
2021/11/01 04:43:29;;;;;;;1.93;0.60;;;;;;;;;;5072861;28;20453;-92
2021/11/01 04:54:07;;;;;;;2.40;0.77;;;;;;;;;;5075048;28;20425;-95
2021/11/01 04:56:36;;;;;;;3.00;0.70;;;;;;;;;;5074551;28;20444;-94
2021/11/01 04:59:04;;;;;;;1.50;0.60;;;10.10;99.90;;;;;;5074313;28;20501;-92
2021/11/01 05:01:34;;;;;;;2.43;0.50;;;;;;;;;;5072805;28;20940;-93
2021/11/01 05:04:06;;;;;;;3.80;0.63;;;;;;;;;;5074678;28;20430;-90
2021/11/01 05:06:33;;;;;;;3.03;0.70;;;;;;;;;;5074841;28;20937;-94
2021/11/01 05:09:05;;;;;;;7.90;0.70;;;;;;;;;;5074884;28;20453;-92
2021/11/01 05:11:34;;;;;;;2.03;0.57;;;;;;;;;;5072406;28;20458;-91
2021/11/01 05:14:03;;;;;;;2.43;0.67;;;;;;;;;;5073101;28;20456;-94
2021/11/01 05:19:34;;;;;;;2.77;1.10;;;;;;;;;;5128758;27;20534;-93
2021/11/01 05:22:08;;;;;;;3.77;0.93;;;;;;;;;;5124240;28;20456;-91
2021/11/01 05:24:38;;;;;;;0.57;0.50;;;;;;;;;;5121410;28;20483;-93
2021/11/01 05:27:22;;;;;;;1.90;0.70;;;10.10;99.90;;;;;;5112296;28;20451;-91
2021/11/01 05:29:51;;;;;;;5.00;0.60;;;;;;;;;;5112566;28;20513;-90
2021/11/01 05:32:21;;;;;;;1.90;0.63;;;;;;;;;;5112855;28;20949;-92
2021/11/01 05:34:50;;;;;;;1.37;0.60;;;;;;;;;;5109141;28;20456;-91
2021/11/01 05:37:17;;;;;;;1.37;0.60;;;;;;;;;;5112246;28;20436;-92
2021/11/01 05:39:45;;;;;;;2.60;0.80;;;;;;;;;;5112543;28;20472;-92
2021/11/01 05:42:12;;;;;;;0.80;0.60;;;;;;;;;;5112310;28;20459;-91
2021/11/01 05:44:39;;;;;;;1.00;0.50;;;;;;;;;;5112329;28;20439;-92
2021/11/01 05:47:07;;;;;;;0.60;0.50;;;;;;;;;;5111615;28;20801;-92
2021/11/01 05:49:37;;;;;;;1.27;0.57;;;;;;;;;;5123304;28;20947;-92
2021/11/01 05:52:15;;;;;;;1.57;0.40;;;9.90;99.90;;;;;;5113205;28;20454;-91
2021/11/01 05:54:42;;;;;;;1.53;0.50;;;;;;;;;;5109138;28;20432;-90
2021/11/01 05:57:14;;;;;;;4.03;1.30;;;;;;;;;;5108357;28;20452;-90
2021/11/01 06:02:47;;;;;;;0.60;0.40;;;;;;;;;;5111800;28;20431;-92
2021/11/01 06:05:25;;;;;;;4.70;1.50;;;;;;;;;;5111128;28;20439;-91
2021/11/01 06:10:52;;;;;;;1.80;0.53;;;;;;;;;;5077425;28;20468;-93
2021/11/01 06:13:43;;;;;;;4.97;3.00;;;9.80;99.90;;;;;;5090665;28;20548;-92
2021/11/01 06:16:10;;;;;;;2.80;0.97;;;;;;;;;;5091315;28;20507;-90
2021/11/01 06:18:38;;;;;;;7.77;2.90;;;;;;;;;;5107096;28;20492;-91
2021/11/01 06:21:05;;;;;;;6.07;3.80;;;;;;;;;;5091743;28;20461;-92
2021/11/01 06:23:35;;;;;;;2.50;1.50;;;9.70;99.90;;;;;;5110907;28;20466;-91
2021/11/01 06:26:02;;;;;;;2.20;1.80;;;;;;;;;;5110169;28;20433;-92
2021/11/01 06:28:30;;;;;;;1.10;0.60;;;;;;;;;;5111086;28;20425;-91
2021/11/01 06:30:59;;;;;;;1.30;0.73;;;;;;;;;;5096625;28;20429;-94
2021/11/01 06:33:48;;;;;;;6.90;1.30;;;;;;;;;;5097173;28;20520;-93
2021/11/01 06:42:11;;;;;;;5.30;0.77;;;;;;;;;;5094504;28;20444;-92
2021/11/01 06:44:56;;;;;;;1.43;1.00;;;;;;;;;;5096911;28;20441;-94
2021/11/01 06:50:11;;;;;;;1.93;1.07;;;;;;;;;;5097415;28;20467;-92
2021/11/01 06:55:38;;;;;;;1.10;1.00;;;;;;;;;;5081882;28;20530;-94
2021/11/01 06:58:14;;;;;;;0.80;0.70;;;;;;;;;;5095450;28;20483;-88
2021/11/01 07:14:39;;;;;;;7.20;3.87;;;;;;;;;;5096856;28;20930;-91
2021/11/01 07:17:09;;;;;;;4.57;2.60;;;;;;;;;;5078336;28;20814;-91
2021/11/01 07:19:53;;;;;;;2.50;0.60;;;;;;;;;;5106268;28;20492;-90
2021/11/01 08:26:19;;;;;;;1.50;0.83;;;;;;;;;;5066937;28;20942;-90
2021/11/01 09:04:44;;;;;;;4.43;1.33;;;;;;;;;;5020331;28;20452;-89
2021/11/01 09:07:31;;;;;;;8.30;6.03;;;;;;;;;;5069337;22;20489;-91
2021/11/01 09:21:12;;;;;;;2.50;2.10;;;;;;;;;;5061917;28;20430;-91
2021/11/01 09:23:49;;;;;;;2.70;1.40;;;9.20;99.90;;;;;;5091081;22;20468;-93
2021/11/01 09:26:22;;;;;;;4.43;4.00;;;;;;;;;;5107759;22;20518;-92
2021/11/01 09:28:56;;;;;;;9.90;6.00;;;;;;;;;;5111454;22;20444;-89
2021/11/01 09:36:56;;;;;;;1.00;0.40;;;;;;;;;;5034328;28;21059;-90
2021/11/01 09:39:44;;;;;;;1.03;0.90;;;9.20;99.90;;;;;;5033859;28;20491;-91
2021/11/01 09:42:13;;;;;;;3.37;1.87;;;;;;;;;;5029971;28;20916;-90
2021/11/01 09:44:47;;;;;;;2.00;0.73;;;9.40;99.90;;;;;;5033452;28;20464;-91
2021/11/01 09:47:15;;;;;;;1.00;0.60;;;;;;;;;;5033230;28;20796;-90
2021/11/01 09:49:42;;;;;;;1.00;0.90;;;;;;;;;;5034259;28;20443;-88
2021/11/01 09:52:11;;;;;;;0.93;0.80;;;;;;;;;;5035340;28;20510;-88
2021/11/01 09:54:42;;;;;;;2.20;1.00;;;;;;;;;;5037939;28;20459;-88
2021/11/01 09:57:20;;;;;;;1.73;1.37;;;9.30;99.90;;;;;;5034095;28;20447;-91
2021/11/01 09:59:47;;;;;;;3.33;1.70;;;;;;;;;;5033581;28;20485;-91
2021/11/01 10:02:17;;;;;;;1.80;0.60;;;9.30;99.90;;;;;;5034421;28;20970;-91
2021/11/01 10:04:49;;;;;;;0.67;0.43;;;9.30;99.90;;;;;;5035956;28;20846;-93
2021/11/01 10:07:20;;;;;;;0.93;0.67;;;9.30;99.90;;;;;;5039255;28;20463;-90
2021/11/01 10:09:49;;;;;;;1.53;0.87;;;;;;;;;;5035273;28;20494;-91
2021/11/01 10:12:21;;;;;;;1.27;0.80;;;9.30;99.90;;;;;;5036737;28;20864;-89
2021/11/01 10:14:51;;;;;;;1.70;0.70;;;9.40;99.90;;;;;;5037091;28;20447;-89
2021/11/01 10:17:34;;;;;;;1.80;0.50;;;9.30;99.90;;;;;;5037848;28;20455;-90
2021/11/01 10:20:02;;;;;;;2.13;1.00;;;;;;;;;;5047616;28;20537;-90
2021/11/01 10:22:38;;;;;;;2.23;1.00;;;9.60;99.90;;;;;;5055645;22;20505;-91
2021/11/01 10:25:25;;;;;;;1.33;0.63;;;9.60;99.90;;;;;;5040149;28;20842;-91
2021/11/01 10:27:56;;;;;;;1.40;0.77;;;9.60;99.90;;;;;;5059683;22;20489;-93
2021/11/01 10:30:25;;;;;;;1.10;0.50;;;9.50;99.90;;;;;;5061238;28;20980;-90
2021/11/01 10:32:53;;;;;;;1.03;0.50;;;9.50;99.90;;;;;;5060341;28;20846;-92
2021/11/01 10:35:24;;;;;;;1.00;0.77;;;9.50;99.90;;;;;;5057889;28;20819;-94
2021/11/01 10:38:08;;;;;;;0.73;0.70;;;9.50;99.90;;;;;;5056303;28;20485;-89
2021/11/01 10:40:41;;;;;;;2.07;1.10;;;9.60;99.90;;;;;;5054410;28;20980;-88
2021/11/01 10:57:57;;;;;;;2.97;2.77;;;9.50;99.90;;;;;;5059435;28;20492;-95
2021/11/01 11:11:43;;;;;;;0.57;0.40;;;9.60;99.90;;;;;;4998676;28;20464;-96
2021/11/01 11:14:28;;;;;;;1.00;0.70;;;;;;;;;;4999598;28;20532;-93
2021/11/01 11:17:33;;;;;;;3.20;0.93;;;;;;;;;;4997492;28;20441;-93
2021/11/01 11:23:35;;;;;;;2.50;1.10;;;9.80;99.90;;;;;;4999280;28;20497;-91
2021/11/01 11:37:57;;;;;;;2.00;1.63;;;9.90;99.90;;;;;;5001455;28;20492;-92
2021/11/01 11:49:07;;;;;;;2.03;1.43;;;9.90;99.90;;;;;;5004776;28;20548;-91
2021/11/01 11:51:37;;;;;;;3.07;2.20;;;9.80;99.90;;;;;;4998934;28;20453;-89
2021/11/01 11:54:06;;;;;;;1.27;1.07;;;;;;;;;;5008540;28;20490;-95
2021/11/01 11:56:37;;;;;;;1.33;1.13;;;9.80;99.90;;;;;;5008630;28;20461;-92
2021/11/01 11:59:06;;;;;;;1.63;1.10;;;9.90;99.90;;;;;;5007953;28;20481;-93
2021/11/01 12:01:38;;;;;;;1.00;0.80;;;9.90;99.90;;;;;;5007698;28;20474;-91
2021/11/01 12:04:31;;;;;;;8.43;6.50;;;10.00;99.90;;;;;;5010870;28;20461;-92
2021/11/01 12:07:02;;;;;;;1.47;1.00;;;;;;;;;;5009719;28;20445;-93
2021/11/01 12:09:36;;;;;;;3.80;3.40;;;10.00;99.90;;;;;;5014145;28;20465;-92
2021/11/01 12:17:51;;;;;;;0.97;0.93;;;;;;;;;;5006482;28;20803;-90
2021/11/01 12:20:22;;;;;;;1.00;0.90;;;;;;;;;;5006202;28;20489;-90
2021/11/01 12:22:50;;;;;;;0.93;0.80;;;10.50;99.90;;;;;;5004780;28;20457;-90
2021/11/01 12:25:23;;;;;;;2.20;0.80;;;;;;;;;;5006408;28;20469;-92
2021/11/01 12:28:01;;;;;;;0.80;0.70;;;10.10;99.90;;;;;;5000604;28;20481;-91
2021/11/01 12:30:39;;;;;;;1.40;1.23;;;10.20;99.90;;;;;;5006009;28;20885;-91
2021/11/01 12:33:07;;;;;;;0.93;0.83;;;;;;;;;;4966802;28;20474;-89
2021/11/01 12:35:42;;;;;;;1.93;1.10;;;10.10;99.90;;;;;;4959995;29;20939;-93
2021/11/01 12:38:14;;;;;;;2.37;1.30;;;;;;;;;;4967305;23;20467;-93
2021/11/01 12:58:27;;;;;;;4.40;1.20;;;;;;;;;;5022974;28;20486;-91
2021/11/01 13:00:55;;;;;;;1.40;1.30;;;;;;;;;;5033749;22;20484;-92
2021/11/01 13:03:23;;;;;;;2.57;1.30;;;10.20;99.90;;;;;;5028955;28;20480;-90
2021/11/01 13:05:54;;;;;;;2.90;2.20;;;10.20;99.90;;;;;;5028429;28;20483;-91
2021/11/01 13:11:26;;;;;;;1.43;1.10;;;10.20;99.90;;;;;;5034845;22;20498;-93
2021/11/01 13:14:29;;;;;;;2.10;1.33;;;10.30;99.90;;;;;;5036870;22;20492;-90
2021/11/01 13:19:48;;;;;;;1.33;0.90;;;;;;;;;;5031360;28;20540;-90
2021/11/01 13:22:22;;;;;;;5.37;1.37;;;10.30;99.90;;;;;;5031149;28;20475;-90
2021/11/01 13:24:58;;;;;;;1.13;1.03;;;10.50;99.90;;;;;;5029638;28;20440;-90
2021/11/01 13:27:41;;;;;;;3.87;2.83;;;10.10;99.90;;;;;;5026404;28;20471;-91
2021/11/01 13:38:33;;;;;;;6.90;1.07;;;10.40;99.90;;;;;;5026930;28;20433;-92
2021/11/01 13:43:44;;;;;;;1.00;0.90;;;10.20;99.90;;;;;;5030389;22;20535;-91
2021/11/01 13:46:12;;;;;;;2.43;2.23;;;10.10;99.90;;;;;;5008549;28;20208;-90
2021/11/01 13:48:40;;;;;;;0.87;0.83;;;;;;;;;;5030195;23;20495;-92
2021/11/01 13:51:10;;;;;;;1.50;1.40;;;10.20;99.90;;;;;;5032121;28;20425;-90
2021/11/01 13:53:45;;;;;;;1.60;1.10;;;10.20;99.90;;;;;;5035143;28;20440;-93
2021/11/01 13:59:01;;;;;;;2.47;2.00;;;;;;;;;;5040345;22;20554;-91
2021/11/01 14:01:45;;;;;;;1.40;1.07;;;10.30;99.90;;;;;;5040601;22;20484;-92
2021/11/01 14:12:43;;;;;;;4.13;1.20;;;;;;;;;;5027998;28;20435;-90
2021/11/01 14:15:22;;;;;;;1.27;0.90;;;;;;;;;;5033006;28;20436;-91
2021/11/01 14:20:54;;;;;;;1.10;1.00;;;;;;;;;;5052309;22;20484;-91
2021/11/01 14:29:12;;;;;;;2.03;1.10;;;;;;;;;;5065550;22;20512;-90
2021/11/01 15:11:07;;;;;;;2.30;1.00;;;10.30;99.90;;;;;;5068763;28;20463;-90
2021/11/01 15:16:26;;;;;;;4.00;1.30;;;;;;;;;;5069221;22;20500;-90
2021/11/01 15:19:02;;;;;;;1.10;1.00;;;;;;;;;;5063522;28;20938;-91
2021/11/01 15:21:36;;;;;;;2.77;1.23;;;;;;;;;;5076945;22;20490;-91
2021/11/01 15:27:16;;;;;;;4.20;1.20;;;;;;;;;;5067494;28;20453;-89
2021/11/01 15:32:50;;;;;;;1.00;0.90;;;;;;;;;;5071741;22;20463;-90
2021/11/01 15:38:23;;;;;;;1.67;1.00;;;;;;;;;;5040362;28;20441;-90
2021/11/01 16:17:22;;;;;;;5.13;2.30;;;9.50;99.90;;;;;;5025473;28;20503;-89
2021/11/01 16:19:51;;;;;;;2.03;1.67;;;;;;;;;;5051544;28;20492;-89
2021/11/01 16:22:18;;;;;;;2.50;2.30;;;;;;;;;;5056776;28;20450;-91
2021/11/01 16:24:46;;;;;;;2.27;1.40;;;;;;;;;;5055800;28;20848;-93
2021/11/01 16:27:16;;;;;;;2.83;2.17;;;9.30;99.90;;;;;;5054395;28;20457;-87
2021/11/01 16:29:49;;;;;;;1.93;1.30;;;;;;;;;;5052095;28;20447;-88
2021/11/01 16:32:20;;;;;;;1.70;1.50;;;;;;;;;;5053179;28;20454;-88
2021/11/01 16:34:53;;;;;;;3.07;1.40;;;9.30;99.90;;;;;;5049251;28;20446;-88
2021/11/01 16:37:28;;;;;;;3.07;1.50;;;;;;;;;;5056509;28;20468;-88
2021/11/01 16:40:00;;;;;;;1.67;1.20;;;9.20;99.90;;;;;;5046809;28;20513;-87
2021/11/01 16:42:32;;;;;;;3.53;1.50;;;9.20;99.90;;;;;;5057672;28;20880;-89
2021/11/01 16:45:04;;;;;;;1.80;1.53;;;9.20;99.90;;;;;;5059794;28;20478;-89
2021/11/01 16:47:32;;;;;;;3.33;1.60;;;;;;;;;;5055326;28;20482;-89
2021/11/01 16:50:00;;;;;;;1.70;1.50;;;9.10;99.90;;;;;;5056594;28;20495;-89
2021/11/01 16:52:27;;;;;;;3.63;1.73;;;;;;;;;;5057647;28;20442;-89
2021/11/01 16:54:56;;;;;;;4.33;2.17;;;;;;;;;;5054304;28;20450;-92
2021/11/01 16:57:28;;;;;;;12.47;7.17;;;9.00;99.90;;;;;;5059824;28;20457;-91
2021/11/01 17:00:07;;;;;;;19.67;12.10;;;9.00;99.90;;;;;;5059799;28;20611;-89
2021/11/01 17:11:10;;;;;;;13.30;8.40;;;;;;;;;;5052261;28;20447;-89
2021/11/01 17:24:49;;;;;;;8.60;4.67;;;;;;;;;;5056519;28;20441;-89
2021/11/01 17:27:36;;;;;;;3.20;2.57;;;8.40;99.90;;;;;;5055860;28;20457;-88
2021/11/01 17:35:57;;;;;;;3.37;3.07;;;8.20;99.90;;;;;;5054075;28;20441;-90
2021/11/01 18:39:58;;;;;;;3.10;2.60;;;7.90;99.90;;;;;;5059085;28;20533;-90
2021/11/01 18:45:24;;;;;;;3.23;2.47;;;;;;;;;;5060810;28;20839;-89
2021/11/01 18:53:34;;;;;;;2.87;2.47;;;7.90;99.90;;;;;;5050600;28;20516;-90
2021/11/01 18:56:05;;;;;;;1.83;1.63;;;7.90;99.90;;;;;;5054001;28;20865;-89
2021/11/01 18:58:36;;;;;;;4.70;1.83;;;7.80;99.90;;;;;;5057637;28;20486;-88
2021/11/01 19:01:05;;;;;;;2.40;2.20;;;7.80;99.90;;;;;;5059566;28;21085;-90
2021/11/01 19:03:36;;;;;;;2.60;1.93;;;;;;;;;;5051174;28;20515;-90
2021/11/01 19:06:14;;;;;;;1.20;1.10;;;;;;;;;;5053404;28;20454;-88
2021/11/01 19:08:50;;;;;;;6.00;2.77;;;;;;;;;;5055111;28;20454;-90
2021/11/01 20:04:40;;;;;;;2.07;1.67;;;7.50;99.90;;;;;;5057755;28;20795;-88
2021/11/01 21:25:20;;;;;;;2.10;1.80;;;7.00;99.90;;;;;;5054516;28;20839;-89
2021/11/01 21:27:48;;;;;;;3.47;0.90;;;;;;;;;;5052400;28;20542;-90
2021/11/01 21:30:15;;;;;;;15.80;8.63;;;;;;;;;;5054697;28;20446;-89
2021/11/01 21:32:43;;;;;;;6.20;4.00;;;;;;;;;;5051100;28;20446;-92
2021/11/01 21:35:13;;;;;;;2.77;2.20;;;7.00;99.90;;;;;;5054987;28;20451;-91
2021/11/01 21:37:40;;;;;;;1.53;1.43;;;;;;;;;;5055329;28;20460;-88
2021/11/01 21:40:10;;;;;;;4.40;2.63;;;7.00;99.90;;;;;;5054850;28;20458;-90
2021/11/01 21:42:38;;;;;;;5.43;4.80;;;7.00;99.90;;;;;;5050941;28;20987;-91
2021/11/01 21:45:07;;;;;;;3.43;3.13;;;8.40;99.90;;;;;;5055234;28;20482;-89
2021/11/01 21:47:35;;;;;;;5.37;4.87;;;;;;;;;;5055012;28;20447;-91
2021/11/01 21:50:03;;;;;;;2.83;2.60;;;;;;;;;;5054957;28;20938;-92
2021/11/01 21:52:30;;;;;;;5.00;4.37;;;;;;;;;;5054671;28;20822;-90
2021/11/01 21:54:58;;;;;;;7.53;3.60;;;;;;;;;;5053507;28;20516;-88
2021/11/01 21:57:29;;;;;;;2.83;2.63;;;;;;;;;;5053861;28;20814;-91
2021/11/01 22:19:31;;;;;;;2.90;1.83;;;;;;;;;;5063760;28;20469;-89
2021/11/01 22:22:07;;;;;;;1.40;1.20;;;;;;;;;;5053701;28;20483;-89
2021/11/01 22:24:41;;;;;;;1.30;1.20;;;;;;;;;;5053049;28;20449;-89
2021/11/01 22:32:08;;;;;;;4.90;1.73;;;;;;;;;;5055727;28;20509;-89
2021/11/01 22:33:20;;;;;;;2.47;1.50;;;7.00;99.90;;;;;;5056041;28;20446;-89
2021/11/01 22:41:25;;;;;;;2.17;1.60;;;;;;;;;;5052099;28;20984;-92
2021/11/01 22:55:38;;;;;;;5.60;1.37;;;;;;;;;;4994793;28;20460;-92
2021/11/01 22:58:07;;;;;;;1.80;1.17;;;6.90;99.90;;;;;;5047748;28;20482;-90
2021/11/01 23:00:36;;;;;;;1.50;1.30;;;6.90;99.90;;;;;;5055780;28;20450;-89
2021/11/01 23:03:08;;;;;;;2.57;1.37;;;;;;;;;;5056025;28;20504;-89
2021/11/01 23:06:05;;;;;;;3.97;1.67;;;;;;;;;;5056129;28;20458;-89
2021/11/01 23:33:21;;;;;;;2.30;1.47;;;;;;;;;;5054981;28;20968;-90
2021/11/01 23:35:48;;;;;;;1.30;1.20;;;;;;;;;;5054391;28;20473;-86
2021/11/01 23:38:18;;;;;;;3.80;1.53;;;6.70;99.90;;;;;;5052006;28;20946;-88
2021/11/01 23:40:45;;;;;;;1.30;1.00;;;;;;;;;;5054630;28;20474;-89
2021/11/01 23:43:13;;;;;;;5.33;1.97;;;;;;;;;;5053655;28;20450;-91
2021/11/01 23:45:41;;;;;;;2.33;1.60;;;;;;;;;;5055394;28;20486;-92
2021/11/01 23:48:08;;;;;;;6.60;2.00;;;;;;;;;;5062179;28;20458;-90
2021/11/01 23:50:36;;;;;;;3.27;1.47;;;;;;;;;;5055555;28;20443;-91
2021/11/01 23:53:10;;;;;;;4.87;1.53;;;;;;;;;;5054245;28;20446;-91
2021/11/01 23:55:38;;;;;;;2.63;1.33;;;6.90;99.90;;;;;;5054835;28;20552;-91
2021/11/01 23:58:07;;;;;;;2.10;1.73;;;7.00;99.90;;;;;;5053900;28;20442;-91
